Главная страница
METAR-TAF:

METAR-TAF

Аэропорты :

Криштиану Роналду

Фуншал, Мадейра, Португалия

широта: 32-41-52N, долгота: 016-46-28W, высота над уровнем моря: 59 м

Текущие метеонаблюдения

Эта сводка был подготовлена 23 минут назад, в 06:00 UTC
Ветер 18 Узел от северный, изменяющийся между северно-северо-западный и северо-восточный
Температура 22°C
Влажность 69%
Давление 1020 hPa
Видимость 10 км и более
небольшая облачность на высоте 1600 фута

METAR: LPMA 230600Z 01018KT 340V040 9999 FEW016 22/16 Q1020

Время: 07:23 (06:23 UTC)

Прогноз

Эта сводка был подготовлена 1 час и 23 минут назад, в 05:00 UTC
Прогноз действительный с 23-го 06 UTC до 24-го 06 UTC
Ветер 15 Узел от северо-северо-восточный
Видимость 10 км и более
Отдельные облака на высоте 1600 фута
временами
С 23-го 06 UTC до 24-го 06 UTC
Ветер 20 Узел от северо-северо-восточный с порывами до 30 Узел

TAF: LPMA 230500Z 2306/2406 03015KT 9999 SCT016 TEMPO 2306/2406 03020G30KT

Метеонаблюдения и прогнозы для более 4000 аэропортов (сводки METAR и TAF).

Имеющиеся станции представлены на карте желтыми и красными точками.

Чтобы увидеть название станции, наведите на нее мышь.

Затем щелкните, чтобы увидеть метеонаблюдения и метеопрогнозы.

Управление картой: чтобы увеличить масштаб, щелкните зеленые кнопки с черным крестиком; чтобы уменьшить масштаб, щелкните зеленую кнопку с тире; для просмотра соседних карт щелкайте зеленые стрелки.


METAR-TAF: